createdAt,value
2019-03-13T00:01:13.743Z,95633.77
2019-03-13T00:03:42.484Z,95622.70
2019-03-13T00:06:08.587Z,95674.03
2019-03-13T00:08:34.913Z,95686.00
2019-03-13T00:11:01.044Z,95693.81
2019-03-13T00:13:29.962Z,95689.97
2019-03-13T00:15:56.172Z,95698.55
2019-03-13T00:18:25.262Z,95721.84
2019-03-13T00:20:51.091Z,95744.77
2019-03-13T00:23:19.953Z,95729.42
2019-03-13T00:25:45.786Z,95768.04
2019-03-13T00:28:11.656Z,95714.83
2019-03-13T00:30:37.749Z,95791.62
2019-03-13T00:33:03.595Z,95762.16
2019-03-13T00:35:31.110Z,95794.70
2019-03-13T00:37:57.168Z,95794.02
2019-03-13T00:40:27.035Z,95788.27
2019-03-13T00:42:52.867Z,95779.84
2019-03-13T00:45:21.484Z,95806.73
2019-03-13T00:47:47.313Z,95835.83
2019-03-13T00:50:21.601Z,95842.77
2019-03-13T00:52:47.491Z,95872.59
2019-03-13T00:55:13.357Z,95863.27
2019-03-13T00:57:39.126Z,95859.32
2019-03-13T01:00:07.748Z,95862.34
2019-03-13T01:02:38.310Z,95882.25
2019-03-13T01:07:56.828Z,95877.34
2019-03-13T01:10:22.902Z,95878.77
2019-03-13T01:12:48.707Z,95888.55
2019-03-13T01:15:14.634Z,95922.31
2019-03-13T01:17:40.681Z,95921.42
2019-03-13T01:20:08.195Z,95953.67
2019-03-13T01:25:11.905Z,95968.49
2019-03-13T01:27:37.733Z,95991.34
2019-03-13T01:30:07.437Z,95978.74
2019-03-13T01:32:38.189Z,95989.50
2019-03-13T01:35:11.736Z,96003.42
2019-03-13T01:37:37.533Z,96002.41
2019-03-13T01:40:06.772Z,96006.75
2019-03-13T01:42:32.630Z,96003.25
2019-03-13T01:44:58.448Z,96016.09
2019-03-13T01:47:24.502Z,96001.69
2019-03-13T01:49:50.315Z,96010.31
2019-03-13T01:52:16.418Z,96015.17
2019-03-13T01:54:42.240Z,96028.55
2019-03-13T01:57:08.308Z,96034.08
2019-03-13T01:59:34.129Z,96033.53
2019-03-13T02:02:00.231Z,96039.81
2019-03-13T02:04:26.355Z,96038.63
2019-03-13T02:06:52.180Z,96036.11
2019-03-13T02:09:18.043Z,96044.23
2019-03-13T02:11:43.881Z,96049.45
2019-03-13T02:14:09.638Z,96050.61
2019-03-13T02:16:35.765Z,96043.11
2019-03-13T02:19:01.569Z,96044.94
2019-03-13T02:21:27.677Z,96040.28
2019-03-13T02:23:53.495Z,96024.39
2019-03-13T02:26:19.328Z,96045.54
2019-03-13T02:28:45.433Z,96035.45
2019-03-13T02:31:11.589Z,96039.39
2019-03-13T02:33:37.414Z,96048.42
2019-03-13T02:36:03.255Z,96047.64
2019-03-13T02:38:29.322Z,96056.84
2019-03-13T02:40:55.146Z,96054.19
2019-03-13T02:43:21.219Z,96052.00
2019-03-13T02:45:47.059Z,96055.39
2019-03-13T02:48:12.850Z,96058.28
2019-03-13T02:50:38.945Z,96057.43
2019-03-13T02:53:04.720Z,96052.98
2019-03-13T02:55:30.536Z,96060.72
2019-03-13T02:57:56.602Z,96063.88
2019-03-13T03:00:24.314Z,96054.64
2019-03-13T03:02:52.032Z,96072.91
2019-03-13T03:05:17.997Z,96056.84
2019-03-13T03:07:43.782Z,96061.16
2019-03-13T03:10:11.421Z,96070.19
2019-03-13T03:12:37.248Z,96058.20
2019-03-13T03:15:06.365Z,96056.61
2019-03-13T03:17:32.436Z,96066.92
2019-03-13T03:19:58.297Z,96063.97
2019-03-13T03:22:24.340Z,96067.84
2019-03-13T03:24:50.435Z,96072.92
2019-03-13T03:27:16.245Z,96075.50
2019-03-13T03:29:42.117Z,96082.11
2019-03-13T03:32:07.943Z,96082.92
2019-03-13T03:34:33.771Z,96090.97
2019-03-13T03:36:59.614Z,96084.45
2019-03-13T03:39:25.421Z,96099.93
2019-03-13T03:41:51.205Z,96108.11
2019-03-13T03:44:17.143Z,96099.18
2019-03-13T03:46:43.275Z,96110.85
2019-03-13T03:49:09.200Z,96103.66
2019-03-13T03:51:34.981Z,96114.02
2019-03-13T03:54:03.957Z,96108.86
2019-03-13T03:56:29.780Z,96116.32
2019-03-13T03:58:58.457Z,96107.20
2019-03-13T04:01:24.295Z,96117.52
2019-03-13T04:03:53.303Z,96116.09
2019-03-13T04:06:19.690Z,96123.30
2019-03-13T04:08:45.538Z,96112.60
2019-03-13T04:11:11.394Z,95973.99
2019-03-13T04:13:37.474Z,96123.96
2019-03-13T04:16:03.306Z,96128.28
2019-03-13T04:18:29.405Z,96137.75
2019-03-13T04:20:58.327Z,96137.75
2019-03-13T04:23:24.152Z,96154.04
2019-03-13T04:25:53.522Z,96142.38
2019-03-13T04:28:19.368Z,96165.95
2019-03-13T04:30:48.093Z,96148.16
2019-03-13T04:33:14.163Z,96147.62
2019-03-13T04:35:41.295Z,96149.83
2019-03-13T04:38:07.584Z,96164.38
2019-03-13T04:40:37.120Z,96148.70
2019-03-13T04:43:02.924Z,96159.23
2019-03-13T04:45:28.798Z,96156.11
2019-03-13T04:47:54.650Z,96162.97
2019-03-13T04:50:20.500Z,96168.34
2019-03-13T04:52:49.123Z,96163.78
2019-03-13T04:55:15.159Z,96183.98
2019-03-13T04:57:43.791Z,96165.14
2019-03-13T05:00:15.155Z,96169.47
2019-03-13T05:02:41.127Z,96155.83
2019-03-13T05:05:07.329Z,96151.20
2019-03-13T05:07:33.134Z,96144.92
2019-03-13T05:09:59.266Z,96139.34
2019-03-13T05:12:27.828Z,96138.97
2019-03-13T05:14:53.947Z,96157.65
2019-03-13T05:17:22.815Z,96139.34
2019-03-13T05:19:48.623Z,96155.52
2019-03-13T05:22:14.780Z,96139.13
2019-03-13T05:24:40.571Z,96140.17
2019-03-13T05:27:06.408Z,96135.17
2019-03-13T05:29:35.264Z,96135.30
2019-03-13T05:32:01.416Z,96152.44
2019-03-13T05:34:30.211Z,96137.56
2019-03-13T05:36:56.295Z,96141.88
2019-03-13T05:39:25.229Z,96145.67
2019-03-13T05:41:51.055Z,96173.28
2019-03-13T05:44:19.773Z,96156.52
2019-03-13T05:46:45.834Z,96188.37
2019-03-13T05:49:12.004Z,96176.51
2019-03-13T05:51:38.103Z,96198.10
2019-03-13T05:54:07.238Z,96176.13
2019-03-13T05:56:33.063Z,96180.43
2019-03-13T05:58:58.843Z,96185.70
2019-03-13T06:01:24.956Z,96186.45
2019-03-13T06:03:50.751Z,96181.88
2019-03-13T06:06:19.369Z,96185.37
2019-03-13T06:08:45.196Z,96207.33
2019-03-13T06:11:13.752Z,96182.96
2019-03-13T06:13:39.800Z,96185.96
2019-03-13T06:16:07.827Z,96187.63
2019-03-13T06:18:33.650Z,96193.16
2019-03-13T06:21:04.547Z,96195.62
2019-03-13T06:23:30.460Z,96198.95
2019-03-13T06:25:59.345Z,96194.92
2019-03-13T06:28:25.180Z,96200.73
2019-03-13T06:30:54.315Z,96189.54
2019-03-13T06:33:20.410Z,96211.47
2019-03-13T06:35:46.211Z,96193.16
2019-03-13T06:38:12.066Z,96186.59
2019-03-13T06:40:38.114Z,96183.16
2019-03-13T06:43:03.959Z,96166.44
2019-03-13T06:45:29.821Z,96174.02
2019-03-13T06:47:58.201Z,96159.61
2019-03-13T06:50:24.443Z,96155.83
2019-03-13T06:52:53.908Z,96144.66
2019-03-13T06:55:20.101Z,96143.43
2019-03-13T06:57:48.996Z,96135.77
2019-03-13T07:00:30.467Z,96149.08
2019-03-13T07:03:01.015Z,96142.53
2019-03-13T07:05:28.716Z,96130.14
2019-03-13T07:08:13.130Z,96132.06
2019-03-13T07:10:59.110Z,96138.45
2019-03-13T07:13:29.975Z,96133.06
2019-03-13T07:16:14.654Z,96134.41
2019-03-13T07:18:45.125Z,96122.81
2019-03-13T07:21:29.858Z,96126.06
2019-03-13T07:23:57.548Z,96123.39
2019-03-13T07:26:42.067Z,96121.19
2019-03-13T07:29:12.981Z,96119.14
2019-03-13T07:31:43.501Z,96130.32
2019-03-13T07:34:26.473Z,96123.59
2019-03-13T07:37:11.131Z,96135.11
2019-03-13T07:39:54.004Z,96127.70
2019-03-13T07:42:39.676Z,96130.53
2019-03-13T07:45:15.821Z,96120.09
2019-03-13T07:47:49.658Z,96125.44
2019-03-13T07:50:23.517Z,96118.70
2019-03-13T07:52:54.304Z,96138.77
2019-03-13T07:55:23.356Z,96132.34
2019-03-13T07:58:08.245Z,96134.23
2019-03-13T08:00:35.967Z,96128.14
2019-03-13T08:03:12.744Z,96132.50
2019-03-13T08:05:57.644Z,96133.72
2019-03-13T08:08:34.999Z,96120.91
2019-03-13T08:11:02.703Z,96115.23
2019-03-13T08:13:46.902Z,96136.04
2019-03-13T08:16:17.656Z,96123.22
2019-03-13T08:18:45.370Z,96135.31
2019-03-13T08:21:31.654Z,96135.25
2019-03-13T08:24:11.236Z,96138.39
2019-03-13T08:26:42.012Z,96140.57
2019-03-13T08:29:10.031Z,96123.71
2019-03-13T08:31:56.197Z,96143.34
2019-03-13T08:34:32.745Z,96129.92
2019-03-13T08:37:03.942Z,96135.52
2019-03-13T08:39:48.544Z,96109.84
2019-03-13T08:42:16.233Z,96127.17
2019-03-13T08:44:46.892Z,96120.51
2019-03-13T08:47:20.457Z,96132.92
2019-03-13T08:49:50.737Z,96130.23
2019-03-13T08:52:35.732Z,96118.35
2019-03-13T08:55:12.290Z,96109.77
2019-03-13T08:57:55.190Z,96122.64
2019-03-13T09:00:39.668Z,96109.32
2019-03-13T09:03:16.750Z,96106.05
2019-03-13T09:05:44.720Z,96122.63
2019-03-13T09:08:29.226Z,96118.09
2019-03-13T09:10:59.723Z,96135.20
2019-03-13T09:13:33.242Z,96096.49
2019-03-13T09:16:06.785Z,96118.05
2019-03-13T09:18:51.429Z,96111.08
2019-03-13T09:21:19.132Z,96110.98
2019-03-13T09:23:55.771Z,96107.95
2019-03-13T09:26:35.830Z,96078.75
2019-03-13T09:29:03.544Z,96106.80
2019-03-13T09:31:31.245Z,96109.32
2019-03-13T09:34:07.819Z,96106.63
2019-03-13T09:36:35.546Z,96122.09
2019-03-13T09:39:06.046Z,96127.27
2019-03-13T09:41:39.575Z,96101.78
2019-03-13T09:44:25.966Z,96127.64
2019-03-13T09:46:59.954Z,96118.55
2019-03-13T09:49:40.269Z,96101.25
2019-03-13T09:52:07.961Z,96129.90
2019-03-13T09:54:54.106Z,96102.38
2019-03-13T09:57:38.829Z,96102.70
2019-03-13T10:00:15.981Z,96113.12
2019-03-13T10:02:47.966Z,96098.95
2019-03-13T10:05:27.695Z,96092.76
2019-03-13T10:08:10.522Z,96088.80
2019-03-13T10:10:53.409Z,96056.84
2019-03-13T10:13:21.149Z,96104.73
2019-03-13T10:15:49.106Z,96098.14
2019-03-13T10:18:22.988Z,96079.33
2019-03-13T10:20:59.818Z,96084.14
2019-03-13T10:23:36.384Z,96084.63
2019-03-13T10:26:07.168Z,96086.20
2019-03-13T10:28:34.871Z,96075.89
2019-03-13T10:31:08.180Z,96073.88
2019-03-13T10:33:38.982Z,96070.98
2019-03-13T10:36:23.549Z,96076.81
2019-03-13T10:38:51.260Z,96071.06
2019-03-13T10:41:34.097Z,96073.01
2019-03-13T10:44:04.664Z,96072.60
2019-03-13T10:46:38.487Z,96073.97
2019-03-13T10:49:06.200Z,96069.36
2019-03-13T10:51:37.066Z,96076.56
2019-03-13T10:54:07.801Z,96078.17
2019-03-13T10:56:38.244Z,96061.22
2019-03-13T10:59:14.953Z,96063.39
2019-03-13T11:01:45.738Z,96055.27
2019-03-13T11:04:15.988Z,96060.14
2019-03-13T11:06:54.494Z,96068.92
2019-03-13T11:09:28.714Z,96050.92
2019-03-13T11:11:56.446Z,96075.18
2019-03-13T11:14:24.191Z,96072.94
2019-03-13T11:17:03.951Z,96066.59
2019-03-13T11:19:32.002Z,96071.00
2019-03-13T11:22:08.657Z,96085.01
2019-03-13T11:24:36.357Z,96066.61
2019-03-13T11:27:09.898Z,96076.11
2019-03-13T11:29:40.399Z,96073.34
2019-03-13T11:32:14.367Z,96083.31
2019-03-13T11:34:48.593Z,96083.53
2019-03-13T11:37:19.125Z,96066.42
2019-03-13T11:39:47.086Z,96068.56
2019-03-13T11:42:14.795Z,96062.39
2019-03-13T11:44:59.162Z,96069.60
2019-03-13T11:47:26.852Z,96051.39
2019-03-13T11:49:57.375Z,96049.94
2019-03-13T11:52:25.334Z,96039.25
2019-03-13T11:55:04.998Z,96046.52
2019-03-13T11:57:38.775Z,96024.39
2019-03-13T12:00:32.253Z,96028.73
2019-03-13T12:03:00.434Z,96042.19
2019-03-13T12:05:28.090Z,96019.42
2019-03-13T12:07:58.606Z,96018.05
2019-03-13T12:13:28.843Z,96012.37
2019-03-13T12:16:09.097Z,96015.99
2019-03-13T12:18:39.661Z,96018.51
2019-03-13T12:21:16.391Z,96018.48
2019-03-13T12:24:01.314Z,96004.51
2019-03-13T12:26:43.967Z,96013.84
2019-03-13T12:29:26.571Z,96020.14
2019-03-13T12:31:57.326Z,96008.67
2019-03-13T12:34:42.546Z,96004.05
2019-03-13T12:37:10.716Z,96001.67
2019-03-13T12:39:55.422Z,96001.30
2019-03-13T12:42:29.373Z,95985.24
2019-03-13T12:45:08.916Z,95988.76
2019-03-13T12:47:48.988Z,95977.87
2019-03-13T12:50:17.081Z,95987.14
2019-03-13T12:53:03.328Z,95974.17
2019-03-13T12:58:42.786Z,95980.71
2019-03-13T13:01:10.771Z,95980.72
2019-03-13T13:03:38.495Z,95979.16
2019-03-13T13:06:22.839Z,95979.27
2019-03-13T13:09:05.969Z,95997.67
2019-03-13T13:11:49.143Z,95978.69
2019-03-13T13:14:34.164Z,95970.05
2019-03-13T13:17:01.864Z,95954.34
2019-03-13T13:19:27.948Z,95957.21
2019-03-13T13:21:53.771Z,95948.72
2019-03-13T13:24:19.856Z,95958.28
2019-03-13T13:26:45.687Z,95961.48
2019-03-13T13:29:11.498Z,95962.02
2019-03-13T13:31:37.337Z,95956.32
2019-03-13T13:34:03.125Z,95975.16
2019-03-13T13:36:28.961Z,95955.64
2019-03-13T13:38:54.769Z,95952.27
2019-03-13T13:41:20.599Z,95951.30
2019-03-13T13:43:46.721Z,95972.96
2019-03-13T13:46:16.166Z,95937.20
2019-03-13T13:48:41.987Z,95957.39
2019-03-13T13:51:07.802Z,95961.86
2019-03-13T13:53:33.598Z,95942.61
2019-03-13T13:55:59.451Z,95943.33
2019-03-13T13:58:28.358Z,95960.40
2019-03-13T14:00:53.526Z,95950.99
2019-03-13T14:03:19.580Z,95947.11
2019-03-13T14:05:45.391Z,95940.92
2019-03-13T14:08:11.213Z,95945.44
2019-03-13T14:10:37.429Z,95947.39
2019-03-13T14:13:03.397Z,95944.97
2019-03-13T14:15:29.198Z,95948.67
2019-03-13T14:17:55.046Z,95951.41
2019-03-13T14:20:20.957Z,95939.41
2019-03-13T14:22:47.193Z,95936.92
2019-03-13T14:25:13.332Z,95942.77
2019-03-13T14:27:39.137Z,95931.67
2019-03-13T14:30:19.517Z,95948.48
2019-03-13T14:32:45.334Z,95944.59
2019-03-13T14:35:11.504Z,95950.81
2019-03-13T14:37:37.313Z,95952.28
2019-03-13T14:40:11.277Z,95941.86
2019-03-13T14:42:37.071Z,95969.30
2019-03-13T14:45:06.518Z,95954.94
2019-03-13T14:47:32.297Z,95960.41
2019-03-13T14:49:58.117Z,95955.16
2019-03-13T14:52:24.212Z,95960.47
2019-03-13T14:54:50.034Z,95962.55
2019-03-13T14:57:15.857Z,95961.77
2019-03-13T14:59:41.650Z,95966.87
2019-03-13T15:02:07.495Z,95974.44
2019-03-13T15:04:33.335Z,95979.83
2019-03-13T15:06:59.424Z,95973.51
2019-03-13T15:09:25.235Z,95962.95
2019-03-13T15:11:51.274Z,95956.91
2019-03-13T15:14:17.341Z,95953.16
2019-03-13T15:16:43.162Z,95942.95
2019-03-13T15:19:09.006Z,95962.08
2019-03-13T15:21:34.813Z,95951.28
2019-03-13T15:24:00.891Z,95949.06
2019-03-13T15:26:26.680Z,95940.16
2019-03-13T15:28:52.519Z,95950.44
2019-03-13T15:31:18.332Z,95948.77
2019-03-13T15:33:44.148Z,95948.32
2019-03-13T15:36:09.981Z,95940.83
2019-03-13T15:38:35.776Z,95947.92
2019-03-13T15:41:01.614Z,95959.20
2019-03-13T15:43:27.435Z,95947.19
2019-03-13T15:45:53.305Z,95941.56
2019-03-13T15:48:19.398Z,95929.08
2019-03-13T15:50:45.507Z,95934.62
2019-03-13T15:53:12.936Z,95926.04
2019-03-13T15:55:38.767Z,95933.89
2019-03-13T15:58:07.931Z,95926.97
2019-03-13T16:00:33.736Z,95928.98
2019-03-13T16:03:02.539Z,95914.38
2019-03-13T16:05:28.355Z,95916.52
2019-03-13T16:07:54.196Z,95918.33
2019-03-13T16:10:20.488Z,95934.13
2019-03-13T16:12:46.306Z,95923.61
2019-03-13T16:15:25.393Z,95931.26
2019-03-13T16:17:51.486Z,95939.67
2019-03-13T16:20:17.479Z,95927.87
2019-03-13T16:22:45.288Z,95942.73
2019-03-13T16:25:11.723Z,95935.42
2019-03-13T16:27:37.771Z,95921.77
2019-03-13T16:30:27.287Z,95920.48
2019-03-13T16:32:53.102Z,95919.63
2019-03-13T16:35:18.934Z,95926.30
2019-03-13T16:37:44.718Z,95917.04
2019-03-13T16:40:13.036Z,95922.70
2019-03-13T16:42:39.158Z,95925.45
2019-03-13T16:45:07.886Z,95935.44
2019-03-13T16:47:33.705Z,95925.94
2019-03-13T16:49:59.499Z,95918.70
2019-03-13T16:52:25.574Z,95922.05
2019-03-13T16:54:51.687Z,95924.16
2019-03-13T16:57:17.810Z,95933.41
2019-03-13T16:59:43.675Z,95924.92
2019-03-13T17:02:09.484Z,95914.09
2019-03-13T17:04:35.282Z,95931.64
2019-03-13T17:07:01.378Z,95936.81
2019-03-13T17:09:27.183Z,95935.52
2019-03-13T17:11:52.997Z,95932.85
2019-03-13T17:14:18.789Z,95934.70
2019-03-13T17:16:44.620Z,95923.43
2019-03-13T17:19:10.415Z,95927.02
2019-03-13T17:21:36.223Z,95919.73
2019-03-13T17:24:02.010Z,95913.06
2019-03-13T17:26:27.817Z,95917.88
2019-03-13T17:28:53.902Z,95906.80
2019-03-13T17:31:19.829Z,95908.44
2019-03-13T17:33:45.673Z,95907.78
2019-03-13T17:36:11.475Z,95903.66
2019-03-13T17:38:37.572Z,95896.80
2019-03-13T17:41:03.518Z,95902.14
2019-03-13T17:43:39.038Z,95902.41
2019-03-13T17:45:57.331Z,95900.75
2019-03-13T17:48:23.994Z,95909.80
2019-03-13T17:50:49.793Z,95912.45
2019-03-13T17:53:18.639Z,95918.06
2019-03-13T17:55:44.434Z,95934.72
2019-03-13T17:58:10.511Z,95918.47
2019-03-13T18:00:52.411Z,95923.08
2019-03-13T18:03:19.226Z,95921.87
2019-03-13T18:05:45.058Z,95923.82
2019-03-13T18:08:11.136Z,95906.31
2019-03-13T18:10:36.943Z,95914.61
2019-03-13T18:13:02.946Z,95898.39
2019-03-13T18:15:28.735Z,95910.31
2019-03-13T18:17:54.547Z,95901.34
2019-03-13T18:20:21.988Z,95916.14
2019-03-13T18:22:48.167Z,95916.71
2019-03-13T18:25:14.567Z,95937.40
2019-03-13T18:27:40.487Z,95930.14
2019-03-13T18:30:12.966Z,95909.23
2019-03-13T18:32:42.093Z,95943.20
2019-03-13T18:35:08.912Z,95944.17
2019-03-13T18:37:34.704Z,95956.77
2019-03-13T18:40:00.560Z,95989.67
2019-03-13T18:42:26.352Z,95986.08
2019-03-13T18:44:52.140Z,95983.44
2019-03-13T18:47:17.967Z,95989.12
2019-03-13T18:49:43.907Z,95991.02
2019-03-13T18:52:09.710Z,95996.83
2019-03-13T18:54:35.792Z,95940.89
2019-03-13T18:57:01.591Z,95999.86
2019-03-13T18:59:27.389Z,96007.87
2019-03-13T19:01:56.250Z,96007.94
2019-03-13T19:04:22.351Z,96018.62
2019-03-13T19:06:51.066Z,96004.92
2019-03-13T19:09:16.994Z,95998.61
2019-03-13T19:11:43.215Z,95998.23
2019-03-13T19:14:08.999Z,95996.95
2019-03-13T19:16:34.833Z,96003.17
2019-03-13T19:19:00.726Z,96012.56
2019-03-13T19:21:26.808Z,95862.46
2019-03-13T19:26:40.485Z,96015.58
2019-03-13T19:29:06.630Z,96026.89
2019-03-13T19:31:32.424Z,96021.42
2019-03-13T19:33:58.227Z,96022.92
2019-03-13T19:36:24.048Z,96034.14
2019-03-13T19:38:50.151Z,96028.77
2019-03-13T19:41:15.972Z,96035.09
2019-03-13T19:43:41.797Z,96028.11
2019-03-13T19:46:07.848Z,96030.53
2019-03-13T19:48:33.718Z,96026.29
2019-03-13T19:50:59.530Z,96018.81
2019-03-13T19:53:25.726Z,96020.22
2019-03-13T19:55:51.828Z,96002.34
2019-03-13T19:58:17.651Z,96016.83
2019-03-13T20:00:43.487Z,96009.88
2019-03-13T20:03:11.879Z,96005.16
2019-03-13T20:05:45.371Z,96002.91
2019-03-13T20:08:05.836Z,96000.33
2019-03-13T20:10:31.683Z,95987.44
2019-03-13T20:12:57.501Z,95987.44
2019-03-13T20:15:27.967Z,95994.26
2019-03-13T20:17:53.867Z,96000.70
2019-03-13T20:20:20.974Z,95974.56
2019-03-13T20:22:48.615Z,95971.84
2019-03-13T20:25:17.656Z,95998.45
2019-03-13T20:27:42.864Z,96006.55
2019-03-13T20:30:12.203Z,96010.50
2019-03-13T20:32:38.030Z,96018.24
2019-03-13T20:35:04.210Z,96012.61
2019-03-13T20:37:30.022Z,96021.11
2019-03-13T20:39:55.865Z,96024.44
2019-03-13T20:42:22.053Z,96021.63
2019-03-13T20:44:47.906Z,96012.52
2019-03-13T20:47:16.842Z,96019.52
2019-03-13T20:49:42.662Z,96032.31
2019-03-13T20:52:11.244Z,96023.28
2019-03-13T20:54:37.111Z,96032.69
2019-03-13T20:57:05.371Z,96009.09
2019-03-13T20:59:32.605Z,96007.05
2019-03-13T21:02:00.234Z,95996.80
2019-03-13T21:04:26.397Z,96011.44
2019-03-13T21:06:52.336Z,96008.11
2019-03-13T21:09:18.241Z,96010.86
2019-03-13T21:11:44.056Z,96021.99
2019-03-13T21:14:12.657Z,96018.22
2019-03-13T21:16:38.480Z,96020.94
2019-03-13T21:19:07.137Z,96010.79
2019-03-13T21:21:32.938Z,96029.90
2019-03-13T21:24:01.508Z,96035.22
2019-03-13T21:26:27.404Z,96039.94
2019-03-13T21:28:58.121Z,96024.52
2019-03-13T21:31:23.939Z,96026.27
2019-03-13T21:33:52.805Z,96039.22
2019-03-13T21:36:18.715Z,96066.02
2019-03-13T21:38:44.548Z,96050.61
2019-03-13T21:41:10.638Z,96063.94
2019-03-13T21:43:36.740Z,96054.64
2019-03-13T21:46:02.514Z,96071.59
2019-03-13T21:48:28.616Z,96072.78
2019-03-13T21:50:57.486Z,96070.30
2019-03-13T21:53:23.295Z,96087.28
2019-03-13T21:55:53.957Z,96078.54
2019-03-13T21:58:19.708Z,96087.30
2019-03-13T22:00:47.288Z,96081.62
2019-03-13T22:03:13.058Z,96073.57
2019-03-13T22:05:41.951Z,96086.55
2019-03-13T22:08:07.878Z,96075.65
2019-03-13T22:10:37.106Z,96086.11
2019-03-13T22:13:02.955Z,96087.78
2019-03-13T22:15:28.759Z,96091.14
2019-03-13T22:17:54.888Z,96095.00
2019-03-13T22:20:20.779Z,96095.23
2019-03-13T22:22:48.130Z,96107.58
2019-03-13T22:25:15.538Z,96123.55
2019-03-13T22:27:42.608Z,96110.84
2019-03-13T22:30:17.134Z,96128.77
2019-03-13T22:32:43.314Z,96116.41
2019-03-13T22:35:09.107Z,96104.02
2019-03-13T22:37:35.231Z,96128.73
2019-03-13T22:40:01.338Z,96138.28
2019-03-13T22:42:27.174Z,96139.95
2019-03-13T22:44:53.009Z,96143.16
2019-03-13T22:47:23.597Z,96137.63
2019-03-13T22:49:49.669Z,96135.92
2019-03-13T22:52:15.762Z,96138.13
2019-03-13T22:54:41.600Z,96145.36
2019-03-13T22:57:07.416Z,96145.20
2019-03-13T22:59:36.595Z,96132.75
2019-03-13T23:02:03.330Z,96149.38
2019-03-13T23:04:29.146Z,96155.23
2019-03-13T23:06:55.208Z,96150.83
2019-03-13T23:09:24.295Z,96158.56
2019-03-13T23:11:50.326Z,96178.97
2019-03-13T23:14:19.418Z,96168.66
2019-03-13T23:16:45.238Z,96172.05
2019-03-13T23:19:12.467Z,96176.30
2019-03-13T23:21:38.328Z,96186.86
2019-03-13T23:24:07.027Z,96186.64
2019-03-13T23:26:33.080Z,96189.44
2019-03-13T23:28:58.911Z,96184.28
2019-03-13T23:31:24.709Z,96191.90
2019-03-13T23:33:50.534Z,96188.73
2019-03-13T23:36:19.755Z,96192.72
2019-03-13T23:38:45.579Z,96197.05
2019-03-13T23:41:14.489Z,96197.97
2019-03-13T23:43:40.339Z,96203.88
2019-03-13T23:46:08.253Z,96204.63
2019-03-13T23:48:34.198Z,96215.48
2019-03-13T23:51:21.868Z,96211.83
2019-03-13T23:53:47.984Z,96210.01
2019-03-13T23:56:14.153Z,96199.91
2019-03-13T23:58:39.973Z,96202.11
